sensor_id;sensor_type;location;lat;lon;timestamp;P1;durP1;ratioP1;P2;durP2;ratioP2
6832;SDS011;3454;42.654;23.378;2023-04-24T00:00:15;8.83;;;4.60;;
6832;SDS011;3454;42.654;23.378;2023-04-24T00:02:42;4.90;;;3.90;;
6832;SDS011;3454;42.654;23.378;2023-04-24T00:05:12;6.17;;;4.00;;
6832;SDS011;3454;42.654;23.378;2023-04-24T00:07:42;6.07;;;4.70;;
6832;SDS011;3454;42.654;23.378;2023-04-24T00:10:08;9.33;;;4.27;;
6832;SDS011;3454;42.654;23.378;2023-04-24T00:12:35;6.80;;;4.20;;
6832;SDS011;3454;42.654;23.378;2023-04-24T00:15:00;5.03;;;4.17;;
6832;SDS011;3454;42.654;23.378;2023-04-24T00:17:26;7.33;;;4.60;;
6832;SDS011;3454;42.654;23.378;2023-04-24T00:19:51;4.33;;;3.93;;
6832;SDS011;3454;42.654;23.378;2023-04-24T00:22:23;6.87;;;3.50;;
6832;SDS011;3454;42.654;23.378;2023-04-24T00:24:49;4.50;;;3.53;;
6832;SDS011;3454;42.654;23.378;2023-04-24T00:27:14;8.00;;;4.53;;
6832;SDS011;3454;42.654;23.378;2023-04-24T00:29:40;9.47;;;4.27;;
6832;SDS011;3454;42.654;23.378;2023-04-24T00:32:05;6.23;;;3.90;;
6832;SDS011;3454;42.654;23.378;2023-04-24T00:34:31;4.87;;;3.87;;
6832;SDS011;3454;42.654;23.378;2023-04-24T00:36:57;5.57;;;3.53;;
6832;SDS011;3454;42.654;23.378;2023-04-24T00:39:23;5.53;;;4.07;;
6832;SDS011;3454;42.654;23.378;2023-04-24T00:41:48;7.07;;;3.93;;
6832;SDS011;3454;42.654;23.378;2023-04-24T00:44:15;7.10;;;3.93;;
6832;SDS011;3454;42.654;23.378;2023-04-24T00:46:41;10.20;;;3.77;;
6832;SDS011;3454;42.654;23.378;2023-04-24T00:49:08;8.03;;;4.07;;
6832;SDS011;3454;42.654;23.378;2023-04-24T00:51:33;5.13;;;3.73;;
6832;SDS011;3454;42.654;23.378;2023-04-24T00:54:00;5.57;;;3.97;;
6832;SDS011;3454;42.654;23.378;2023-04-24T00:56:26;5.13;;;4.00;;
6832;SDS011;3454;42.654;23.378;2023-04-24T00:58:52;5.17;;;3.73;;
6832;SDS011;3454;42.654;23.378;2023-04-24T01:01:22;8.60;;;4.00;;
6832;SDS011;3454;42.654;23.378;2023-04-24T01:03:49;5.43;;;4.07;;
6832;SDS011;3454;42.654;23.378;2023-04-24T01:06:16;5.40;;;3.70;;
6832;SDS011;3454;42.654;23.378;2023-04-24T01:08:42;4.93;;;4.00;;
6832;SDS011;3454;42.654;23.378;2023-04-24T01:11:09;4.77;;;4.03;;
6832;SDS011;3454;42.654;23.378;2023-04-24T01:13:35;7.60;;;4.00;;
6832;SDS011;3454;42.654;23.378;2023-04-24T01:16:00;7.17;;;4.63;;
6832;SDS011;3454;42.654;23.378;2023-04-24T01:18:26;6.47;;;4.57;;
6832;SDS011;3454;42.654;23.378;2023-04-24T01:20:53;8.40;;;3.93;;
6832;SDS011;3454;42.654;23.378;2023-04-24T01:23:22;9.33;;;4.47;;
6832;SDS011;3454;42.654;23.378;2023-04-24T01:25:48;7.30;;;4.63;;
6832;SDS011;3454;42.654;23.378;2023-04-24T01:28:14;7.50;;;4.27;;
6832;SDS011;3454;42.654;23.378;2023-04-24T01:30:40;7.83;;;4.23;;
6832;SDS011;3454;42.654;23.378;2023-04-24T01:33:06;5.30;;;4.30;;
6832;SDS011;3454;42.654;23.378;2023-04-24T01:35:31;7.77;;;4.57;;
6832;SDS011;3454;42.654;23.378;2023-04-24T01:37:57;6.70;;;4.43;;
6832;SDS011;3454;42.654;23.378;2023-04-24T01:40:23;5.47;;;4.63;;
6832;SDS011;3454;42.654;23.378;2023-04-24T01:42:48;5.93;;;4.60;;
6832;SDS011;3454;42.654;23.378;2023-04-24T01:45:14;6.10;;;4.90;;
6832;SDS011;3454;42.654;23.378;2023-04-24T01:47:39;9.33;;;5.00;;
6832;SDS011;3454;42.654;23.378;2023-04-24T01:50:05;7.97;;;4.80;;
6832;SDS011;3454;42.654;23.378;2023-04-24T01:52:32;7.17;;;5.17;;
6832;SDS011;3454;42.654;23.378;2023-04-24T01:55:01;8.03;;;4.87;;
6832;SDS011;3454;42.654;23.378;2023-04-24T01:57:28;6.90;;;4.83;;
6832;SDS011;3454;42.654;23.378;2023-04-24T01:59:55;6.57;;;5.50;;
6832;SDS011;3454;42.654;23.378;2023-04-24T02:02:21;5.93;;;4.77;;
6832;SDS011;3454;42.654;23.378;2023-04-24T02:04:48;6.80;;;4.53;;
6832;SDS011;3454;42.654;23.378;2023-04-24T02:07:14;7.00;;;4.87;;
6832;SDS011;3454;42.654;23.378;2023-04-24T02:09:40;7.90;;;4.80;;
6832;SDS011;3454;42.654;23.378;2023-04-24T02:12:05;7.47;;;5.07;;
6832;SDS011;3454;42.654;23.378;2023-04-24T02:14:31;7.13;;;5.23;;
6832;SDS011;3454;42.654;23.378;2023-04-24T02:16:56;7.33;;;5.33;;
6832;SDS011;3454;42.654;23.378;2023-04-24T02:19:22;8.23;;;5.33;;
6832;SDS011;3454;42.654;23.378;2023-04-24T02:21:48;7.60;;;4.57;;
6832;SDS011;3454;42.654;23.378;2023-04-24T02:24:13;8.40;;;5.10;;
6832;SDS011;3454;42.654;23.378;2023-04-24T02:26:38;9.13;;;5.20;;
6832;SDS011;3454;42.654;23.378;2023-04-24T02:29:04;8.73;;;4.53;;
6832;SDS011;3454;42.654;23.378;2023-04-24T02:31:30;5.03;;;4.53;;
6832;SDS011;3454;42.654;23.378;2023-04-24T02:33:55;5.67;;;4.43;;
6832;SDS011;3454;42.654;23.378;2023-04-24T02:36:21;5.67;;;4.43;;
6832;SDS011;3454;42.654;23.378;2023-04-24T02:38:46;9.27;;;4.93;;
6832;SDS011;3454;42.654;23.378;2023-04-24T02:41:11;5.93;;;4.60;;
6832;SDS011;3454;42.654;23.378;2023-04-24T02:43:37;5.80;;;4.60;;
6832;SDS011;3454;42.654;23.378;2023-04-24T02:46:02;5.70;;;4.73;;
6832;SDS011;3454;42.654;23.378;2023-04-24T02:48:28;4.87;;;4.30;;
6832;SDS011;3454;42.654;23.378;2023-04-24T02:50:53;8.30;;;4.63;;
6832;SDS011;3454;42.654;23.378;2023-04-24T02:53:19;8.33;;;4.73;;
6832;SDS011;3454;42.654;23.378;2023-04-24T02:55:44;7.67;;;5.27;;
6832;SDS011;3454;42.654;23.378;2023-04-24T02:58:10;7.57;;;4.87;;
6832;SDS011;3454;42.654;23.378;2023-04-24T03:00:37;9.60;;;5.00;;
6832;SDS011;3454;42.654;23.378;2023-04-24T03:03:03;8.37;;;5.13;;
6832;SDS011;3454;42.654;23.378;2023-04-24T03:05:28;13.43;;;5.17;;
6832;SDS011;3454;42.654;23.378;2023-04-24T03:07:56;13.33;;;6.13;;
6832;SDS011;3454;42.654;23.378;2023-04-24T03:10:21;8.50;;;4.70;;
6832;SDS011;3454;42.654;23.378;2023-04-24T03:12:50;8.17;;;5.17;;
6832;SDS011;3454;42.654;23.378;2023-04-24T03:15:16;9.10;;;5.70;;
6832;SDS011;3454;42.654;23.378;2023-04-24T03:17:41;9.47;;;5.67;;
6832;SDS011;3454;42.654;23.378;2023-04-24T03:20:07;8.07;;;5.40;;
6832;SDS011;3454;42.654;23.378;2023-04-24T03:22:33;7.77;;;4.97;;
6832;SDS011;3454;42.654;23.378;2023-04-24T03:24:59;15.03;;;5.93;;
6832;SDS011;3454;42.654;23.378;2023-04-24T03:27:25;6.27;;;5.07;;
6832;SDS011;3454;42.654;23.378;2023-04-24T03:29:50;12.37;;;5.83;;
6832;SDS011;3454;42.654;23.378;2023-04-24T03:32:23;9.60;;;5.53;;
6832;SDS011;3454;42.654;23.378;2023-04-24T03:34:49;7.13;;;5.70;;
6832;SDS011;3454;42.654;23.378;2023-04-24T03:37:15;13.87;;;5.37;;
6832;SDS011;3454;42.654;23.378;2023-04-24T03:39:41;9.23;;;5.37;;
6832;SDS011;3454;42.654;23.378;2023-04-24T03:42:07;14.73;;;6.30;;
6832;SDS011;3454;42.654;23.378;2023-04-24T03:44:33;9.73;;;5.47;;
6832;SDS011;3454;42.654;23.378;2023-04-24T03:46:59;8.10;;;5.80;;
6832;SDS011;3454;42.654;23.378;2023-04-24T03:49:25;8.87;;;5.30;;
6832;SDS011;3454;42.654;23.378;2023-04-24T03:51:50;12.00;;;6.10;;
6832;SDS011;3454;42.654;23.378;2023-04-24T03:54:17;12.70;;;7.50;;
6832;SDS011;3454;42.654;23.378;2023-04-24T03:56:43;7.77;;;5.77;;
6832;SDS011;3454;42.654;23.378;2023-04-24T03:59:08;22.63;;;14.80;;
6832;SDS011;3454;42.654;23.378;2023-04-24T04:01:33;20.30;;;10.67;;
6832;SDS011;3454;42.654;23.378;2023-04-24T04:04:02;11.23;;;7.10;;
6832;SDS011;3454;42.654;23.378;2023-04-24T04:06:28;6.13;;;5.07;;
6832;SDS011;3454;42.654;23.378;2023-04-24T04:09:01;9.27;;;5.63;;
6832;SDS011;3454;42.654;23.378;2023-04-24T04:11:27;10.67;;;6.07;;
6832;SDS011;3454;42.654;23.378;2023-04-24T04:13:52;7.33;;;6.10;;
6832;SDS011;3454;42.654;23.378;2023-04-24T04:16:17;10.33;;;5.77;;
6832;SDS011;3454;42.654;23.378;2023-04-24T04:18:43;7.43;;;5.53;;
6832;SDS011;3454;42.654;23.378;2023-04-24T04:21:16;8.37;;;6.00;;
6832;SDS011;3454;42.654;23.378;2023-04-24T04:23:41;8.97;;;6.33;;
6832;SDS011;3454;42.654;23.378;2023-04-24T04:26:07;7.87;;;4.80;;
6832;SDS011;3454;42.654;23.378;2023-04-24T04:28:33;10.20;;;8.00;;
6832;SDS011;3454;42.654;23.378;2023-04-24T04:30:58;11.23;;;5.17;;
6832;SDS011;3454;42.654;23.378;2023-04-24T04:33:24;7.23;;;5.77;;
6832;SDS011;3454;42.654;23.378;2023-04-24T04:35:50;11.77;;;9.60;;
6832;SDS011;3454;42.654;23.378;2023-04-24T04:38:22;7.53;;;4.67;;
6832;SDS011;3454;42.654;23.378;2023-04-24T04:40:47;7.45;;;5.22;;
6832;SDS011;3454;42.654;23.378;2023-04-24T04:43:13;8.98;;;6.03;;
6832;SDS011;3454;42.654;23.378;2023-04-24T04:45:39;8.77;;;6.87;;
6832;SDS011;3454;42.654;23.378;2023-04-24T04:48:06;8.40;;;5.65;;
6832;SDS011;3454;42.654;23.378;2023-04-24T04:50:34;7.70;;;5.90;;
6832;SDS011;3454;42.654;23.378;2023-04-24T04:52:59;22.92;;;13.55;;
6832;SDS011;3454;42.654;23.378;2023-04-24T04:55:25;18.35;;;12.43;;
6832;SDS011;3454;42.654;23.378;2023-04-24T04:57:50;12.60;;;8.13;;
6832;SDS011;3454;42.654;23.378;2023-04-24T05:00:16;12.60;;;6.03;;
6832;SDS011;3454;42.654;23.378;2023-04-24T05:02:42;21.67;;;14.07;;
6832;SDS011;3454;42.654;23.378;2023-04-24T05:05:08;11.63;;;7.50;;
6832;SDS011;3454;42.654;23.378;2023-04-24T05:07:34;7.57;;;5.87;;
6832;SDS011;3454;42.654;23.378;2023-04-24T05:09:59;10.03;;;7.37;;
6832;SDS011;3454;42.654;23.378;2023-04-24T05:12:25;9.83;;;6.03;;
6832;SDS011;3454;42.654;23.378;2023-04-24T05:14:51;9.83;;;6.93;;
6832;SDS011;3454;42.654;23.378;2023-04-24T05:17:17;9.53;;;6.03;;
6832;SDS011;3454;42.654;23.378;2023-04-24T05:19:42;8.27;;;5.27;;
6832;SDS011;3454;42.654;23.378;2023-04-24T05:22:08;13.90;;;5.27;;
6832;SDS011;3454;42.654;23.378;2023-04-24T05:24:35;10.43;;;4.70;;
6832;SDS011;3454;42.654;23.378;2023-04-24T05:27:01;12.47;;;4.90;;
6832;SDS011;3454;42.654;23.378;2023-04-24T05:29:27;9.30;;;5.60;;
6832;SDS011;3454;42.654;23.378;2023-04-24T05:31:55;10.30;;;4.83;;
6832;SDS011;3454;42.654;23.378;2023-04-24T05:34:21;7.00;;;5.07;;
6832;SDS011;3454;42.654;23.378;2023-04-24T05:36:46;8.17;;;5.47;;
6832;SDS011;3454;42.654;23.378;2023-04-24T05:39:12;7.00;;;4.83;;
6832;SDS011;3454;42.654;23.378;2023-04-24T05:41:38;9.77;;;6.03;;
6832;SDS011;3454;42.654;23.378;2023-04-24T05:44:03;11.33;;;5.87;;
6832;SDS011;3454;42.654;23.378;2023-04-24T05:46:30;7.80;;;5.43;;
6832;SDS011;3454;42.654;23.378;2023-04-24T05:48:55;7.67;;;5.13;;
6832;SDS011;3454;42.654;23.378;2023-04-24T05:51:21;10.27;;;4.73;;
6832;SDS011;3454;42.654;23.378;2023-04-24T05:53:46;7.67;;;5.70;;
6832;SDS011;3454;42.654;23.378;2023-04-24T05:56:11;8.70;;;5.40;;
6832;SDS011;3454;42.654;23.378;2023-04-24T05:58:37;8.07;;;5.80;;
6832;SDS011;3454;42.654;23.378;2023-04-24T06:01:03;9.43;;;5.80;;
6832;SDS011;3454;42.654;23.378;2023-04-24T06:03:28;8.20;;;5.60;;
6832;SDS011;3454;42.654;23.378;2023-04-24T06:05:54;13.83;;;6.20;;
6832;SDS011;3454;42.654;23.378;2023-04-24T06:08:19;12.50;;;6.77;;
6832;SDS011;3454;42.654;23.378;2023-04-24T06:10:45;11.93;;;6.33;;
6832;SDS011;3454;42.654;23.378;2023-04-24T06:13:10;8.67;;;5.87;;
6832;SDS011;3454;42.654;23.378;2023-04-24T06:15:37;8.70;;;5.60;;
6832;SDS011;3454;42.654;23.378;2023-04-24T06:18:03;11.20;;;6.00;;
6832;SDS011;3454;42.654;23.378;2023-04-24T06:20:28;9.83;;;5.50;;
6832;SDS011;3454;42.654;23.378;2023-04-24T06:22:54;10.70;;;6.20;;
6832;SDS011;3454;42.654;23.378;2023-04-24T06:25:19;15.07;;;8.80;;
6832;SDS011;3454;42.654;23.378;2023-04-24T06:27:45;17.23;;;8.93;;
6832;SDS011;3454;42.654;23.378;2023-04-24T06:30:11;10.20;;;6.67;;
6832;SDS011;3454;42.654;23.378;2023-04-24T06:32:37;9.10;;;7.10;;
6832;SDS011;3454;42.654;23.378;2023-04-24T06:35:02;14.10;;;8.15;;
6832;SDS011;3454;42.654;23.378;2023-04-24T06:37:29;10.13;;;7.20;;
6832;SDS011;3454;42.654;23.378;2023-04-24T06:39:54;12.83;;;6.27;;
6832;SDS011;3454;42.654;23.378;2023-04-24T06:42:20;7.20;;;5.93;;
6832;SDS011;3454;42.654;23.378;2023-04-24T06:44:49;9.18;;;6.82;;
6832;SDS011;3454;42.654;23.378;2023-04-24T06:47:15;9.68;;;6.22;;
6832;SDS011;3454;42.654;23.378;2023-04-24T06:49:41;9.68;;;6.03;;
6832;SDS011;3454;42.654;23.378;2023-04-24T06:52:07;9.18;;;6.32;;
6832;SDS011;3454;42.654;23.378;2023-04-24T06:54:32;8.55;;;5.65;;
6832;SDS011;3454;42.654;23.378;2023-04-24T06:56:58;8.82;;;6.15;;
6832;SDS011;3454;42.654;23.378;2023-04-24T06:59:25;10.43;;;5.82;;
6832;SDS011;3454;42.654;23.378;2023-04-24T07:01:51;11.40;;;6.28;;
6832;SDS011;3454;42.654;23.378;2023-04-24T07:04:17;9.63;;;6.45;;
6832;SDS011;3454;42.654;23.378;2023-04-24T07:06:46;7.50;;;6.53;;
6832;SDS011;3454;42.654;23.378;2023-04-24T07:09:14;7.78;;;6.32;;
6832;SDS011;3454;42.654;23.378;2023-04-24T07:11:41;9.82;;;6.55;;
6832;SDS011;3454;42.654;23.378;2023-04-24T07:14:06;13.80;;;6.68;;
6832;SDS011;3454;42.654;23.378;2023-04-24T07:16:32;10.63;;;6.93;;
6832;SDS011;3454;42.654;23.378;2023-04-24T07:18:58;9.05;;;7.15;;
6832;SDS011;3454;42.654;23.378;2023-04-24T07:21:23;12.73;;;7.20;;
6832;SDS011;3454;42.654;23.378;2023-04-24T07:23:48;10.45;;;6.53;;
6832;SDS011;3454;42.654;23.378;2023-04-24T07:26:14;12.82;;;6.95;;
6832;SDS011;3454;42.654;23.378;2023-04-24T07:28:40;15.70;;;7.50;;
6832;SDS011;3454;42.654;23.378;2023-04-24T07:31:06;9.77;;;6.93;;
6832;SDS011;3454;42.654;23.378;2023-04-24T07:33:32;9.02;;;6.35;;
6832;SDS011;3454;42.654;23.378;2023-04-24T07:35:57;11.95;;;8.20;;
6832;SDS011;3454;42.654;23.378;2023-04-24T07:38:24;16.35;;;8.25;;
6832;SDS011;3454;42.654;23.378;2023-04-24T07:40:51;9.88;;;6.65;;
6832;SDS011;3454;42.654;23.378;2023-04-24T07:43:16;12.68;;;8.20;;
6832;SDS011;3454;42.654;23.378;2023-04-24T07:45:42;10.27;;;6.68;;
6832;SDS011;3454;42.654;23.378;2023-04-24T07:48:08;15.32;;;6.90;;
6832;SDS011;3454;42.654;23.378;2023-04-24T07:50:34;6.63;;;5.20;;
6832;SDS011;3454;42.654;23.378;2023-04-24T07:53:00;11.35;;;4.82;;
6832;SDS011;3454;42.654;23.378;2023-04-24T07:55:25;8.23;;;5.10;;
6832;SDS011;3454;42.654;23.378;2023-04-24T07:57:50;6.35;;;4.10;;
6832;SDS011;3454;42.654;23.378;2023-04-24T08:00:16;4.97;;;4.10;;
6832;SDS011;3454;42.654;23.378;2023-04-24T08:02:42;8.32;;;4.55;;
6832;SDS011;3454;42.654;23.378;2023-04-24T08:05:07;6.35;;;5.55;;
6832;SDS011;3454;42.654;23.378;2023-04-24T08:07:33;12.75;;;6.72;;
6832;SDS011;3454;42.654;23.378;2023-04-24T08:10:00;12.25;;;6.53;;
6832;SDS011;3454;42.654;23.378;2023-04-24T08:12:25;13.40;;;6.75;;
6832;SDS011;3454;42.654;23.378;2023-04-24T08:14:51;10.70;;;6.78;;
6832;SDS011;3454;42.654;23.378;2023-04-24T08:17:17;11.40;;;6.15;;
6832;SDS011;3454;42.654;23.378;2023-04-24T08:19:42;19.08;;;11.43;;
6832;SDS011;3454;42.654;23.378;2023-04-24T08:22:12;15.93;;;6.22;;
6832;SDS011;3454;42.654;23.378;2023-04-24T08:24:38;8.88;;;6.13;;
6832;SDS011;3454;42.654;23.378;2023-04-24T08:27:03;11.63;;;5.68;;
6832;SDS011;3454;42.654;23.378;2023-04-24T08:29:29;10.52;;;5.95;;
6832;SDS011;3454;42.654;23.378;2023-04-24T08:31:54;8.95;;;5.97;;
6832;SDS011;3454;42.654;23.378;2023-04-24T08:34:20;12.70;;;5.63;;
6832;SDS011;3454;42.654;23.378;2023-04-24T08:36:46;13.57;;;6.57;;
6832;SDS011;3454;42.654;23.378;2023-04-24T08:39:12;12.68;;;7.32;;
6832;SDS011;3454;42.654;23.378;2023-04-24T08:41:37;7.93;;;5.88;;
6832;SDS011;3454;42.654;23.378;2023-04-24T08:44:07;14.57;;;7.43;;
6832;SDS011;3454;42.654;23.378;2023-04-24T08:46:34;15.07;;;6.50;;
6832;SDS011;3454;42.654;23.378;2023-04-24T08:49:00;7.72;;;4.97;;
6832;SDS011;3454;42.654;23.378;2023-04-24T08:51:27;7.18;;;5.32;;
6832;SDS011;3454;42.654;23.378;2023-04-24T08:53:55;7.78;;;5.05;;
6832;SDS011;3454;42.654;23.378;2023-04-24T08:56:22;8.68;;;6.00;;
6832;SDS011;3454;42.654;23.378;2023-04-24T08:58:53;7.85;;;5.05;;
6832;SDS011;3454;42.654;23.378;2023-04-24T09:01:19;9.60;;;5.35;;
6832;SDS011;3454;42.654;23.378;2023-04-24T09:03:49;8.32;;;5.65;;
6832;SDS011;3454;42.654;23.378;2023-04-24T09:06:15;9.07;;;4.82;;
6832;SDS011;3454;42.654;23.378;2023-04-24T09:08:42;9.32;;;4.68;;
6832;SDS011;3454;42.654;23.378;2023-04-24T09:11:10;6.57;;;4.57;;
6832;SDS011;3454;42.654;23.378;2023-04-24T09:13:36;6.22;;;4.03;;
6832;SDS011;3454;42.654;23.378;2023-04-24T09:16:03;6.30;;;4.18;;
6832;SDS011;3454;42.654;23.378;2023-04-24T09:18:28;8.07;;;4.28;;
6832;SDS011;3454;42.654;23.378;2023-04-24T09:21:00;8.25;;;4.65;;
6832;SDS011;3454;42.654;23.378;2023-04-24T09:23:31;6.72;;;3.72;;
6832;SDS011;3454;42.654;23.378;2023-04-24T09:25:57;6.25;;;4.50;;
6832;SDS011;3454;42.654;23.378;2023-04-24T09:28:25;6.50;;;4.55;;
6832;SDS011;3454;42.654;23.378;2023-04-24T09:31:02;7.50;;;4.47;;
6832;SDS011;3454;42.654;23.378;2023-04-24T09:33:30;6.53;;;4.65;;
6832;SDS011;3454;42.654;23.378;2023-04-24T09:35:56;8.02;;;4.72;;
6832;SDS011;3454;42.654;23.378;2023-04-24T09:38:33;7.47;;;4.18;;
6832;SDS011;3454;42.654;23.378;2023-04-24T09:41:04;5.47;;;4.60;;
6832;SDS011;3454;42.654;23.378;2023-04-24T09:43:33;5.13;;;3.83;;
6832;SDS011;3454;42.654;23.378;2023-04-24T09:46:05;5.07;;;4.05;;
6832;SDS011;3454;42.654;23.378;2023-04-24T09:48:33;8.95;;;4.35;;
6832;SDS011;3454;42.654;23.378;2023-04-24T09:51:00;5.25;;;4.25;;
6832;SDS011;3454;42.654;23.378;2023-04-24T09:53:28;4.50;;;4.05;;
6832;SDS011;3454;42.654;23.378;2023-04-24T09:55:53;6.82;;;4.63;;
6832;SDS011;3454;42.654;23.378;2023-04-24T09:58:28;7.00;;;5.70;;
6832;SDS011;3454;42.654;23.378;2023-04-24T10:00:55;6.68;;;5.20;;
6832;SDS011;3454;42.654;23.378;2023-04-24T10:03:25;8.40;;;4.32;;
6832;SDS011;3454;42.654;23.378;2023-04-24T10:05:52;5.15;;;4.65;;
6832;SDS011;3454;42.654;23.378;2023-04-24T10:08:18;6.70;;;4.07;;
6832;SDS011;3454;42.654;23.378;2023-04-24T10:10:44;6.55;;;4.53;;
6832;SDS011;3454;42.654;23.378;2023-04-24T10:13:11;8.02;;;4.20;;
6832;SDS011;3454;42.654;23.378;2023-04-24T10:15:38;7.70;;;4.25;;
6832;SDS011;3454;42.654;23.378;2023-04-24T10:18:05;8.98;;;3.88;;
6832;SDS011;3454;42.654;23.378;2023-04-24T10:20:32;5.35;;;4.32;;
6832;SDS011;3454;42.654;23.378;2023-04-24T10:23:01;6.82;;;4.32;;
6832;SDS011;3454;42.654;23.378;2023-04-24T10:25:28;5.75;;;3.75;;
6832;SDS011;3454;42.654;23.378;2023-04-24T10:27:55;9.38;;;5.60;;
6832;SDS011;3454;42.654;23.378;2023-04-24T10:30:27;7.10;;;4.72;;
6832;SDS011;3454;42.654;23.378;2023-04-24T10:33:06;5.63;;;4.20;;
6832;SDS011;3454;42.654;23.378;2023-04-24T10:35:37;5.65;;;4.10;;
6832;SDS011;3454;42.654;23.378;2023-04-24T10:38:07;4.85;;;4.07;;
6832;SDS011;3454;42.654;23.378;2023-04-24T10:40:36;7.00;;;4.35;;
6832;SDS011;3454;42.654;23.378;2023-04-24T10:43:02;8.02;;;4.45;;
6832;SDS011;3454;42.654;23.378;2023-04-24T10:45:31;5.60;;;4.65;;
6832;SDS011;3454;42.654;23.378;2023-04-24T10:48:06;6.47;;;3.60;;
6832;SDS011;3454;42.654;23.378;2023-04-24T10:53:14;7.25;;;4.20;;
6832;SDS011;3454;42.654;23.378;2023-04-24T10:55:56;5.43;;;3.80;;
6832;SDS011;3454;42.654;23.378;2023-04-24T10:58:37;4.72;;;3.70;;
6832;SDS011;3454;42.654;23.378;2023-04-24T11:01:03;7.97;;;4.35;;
6832;SDS011;3454;42.654;23.378;2023-04-24T11:03:33;5.88;;;4.03;;
6832;SDS011;3454;42.654;23.378;2023-04-24T11:08:44;4.75;;;3.80;;
6832;SDS011;3454;42.654;23.378;2023-04-24T11:11:14;7.47;;;3.50;;
6832;SDS011;3454;42.654;23.378;2023-04-24T11:18:51;4.10;;;3.40;;
6832;SDS011;3454;42.654;23.378;2023-04-24T11:21:19;4.72;;;3.67;;
6832;SDS011;3454;42.654;23.378;2023-04-24T11:23:45;5.68;;;3.50;;
6832;SDS011;3454;42.654;23.378;2023-04-24T11:26:18;6.15;;;3.42;;
6832;SDS011;3454;42.654;23.378;2023-04-24T11:28:48;6.30;;;3.80;;
6832;SDS011;3454;42.654;23.378;2023-04-24T11:34:09;7.95;;;3.88;;
6832;SDS011;3454;42.654;23.378;2023-04-24T11:36:37;6.55;;;3.38;;
6832;SDS011;3454;42.654;23.378;2023-04-24T11:39:03;6.38;;;3.47;;
6832;SDS011;3454;42.654;23.378;2023-04-24T11:41:29;8.98;;;3.30;;
6832;SDS011;3454;42.654;23.378;2023-04-24T11:43:55;3.53;;;2.80;;
6832;SDS011;3454;42.654;23.378;2023-04-24T11:46:21;4.63;;;3.15;;
6832;SDS011;3454;42.654;23.378;2023-04-24T11:48:47;4.15;;;2.85;;
6832;SDS011;3454;42.654;23.378;2023-04-24T11:51:13;5.03;;;3.33;;
6832;SDS011;3454;42.654;23.378;2023-04-24T11:53:39;3.85;;;3.40;;
6832;SDS011;3454;42.654;23.378;2023-04-24T11:56:05;3.90;;;3.50;;
6832;SDS011;3454;42.654;23.378;2023-04-24T11:58:40;3.50;;;3.20;;
6832;SDS011;3454;42.654;23.378;2023-04-24T12:01:05;2.75;;;2.20;;
6832;SDS011;3454;42.654;23.378;2023-04-24T12:03:31;4.05;;;2.67;;
6832;SDS011;3454;42.654;23.378;2023-04-24T12:06:09;4.85;;;2.60;;
6832;SDS011;3454;42.654;23.378;2023-04-24T12:08:37;3.10;;;2.78;;
6832;SDS011;3454;42.654;23.378;2023-04-24T12:11:06;4.30;;;2.92;;
6832;SDS011;3454;42.654;23.378;2023-04-24T12:13:32;2.90;;;2.70;;
6832;SDS011;3454;42.654;23.378;2023-04-24T12:15:58;3.97;;;2.83;;
6832;SDS011;3454;42.654;23.378;2023-04-24T12:18:27;3.92;;;3.10;;
6832;SDS011;3454;42.654;23.378;2023-04-24T12:20:52;3.63;;;2.90;;
6832;SDS011;3454;42.654;23.378;2023-04-24T12:23:33;3.17;;;2.88;;
6832;SDS011;3454;42.654;23.378;2023-04-24T12:26:00;6.78;;;3.45;;
6832;SDS011;3454;42.654;23.378;2023-04-24T12:28:34;4.55;;;3.58;;
6832;SDS011;3454;42.654;23.378;2023-04-24T12:31:01;6.20;;;3.00;;
6832;SDS011;3454;42.654;23.378;2023-04-24T12:33:26;3.20;;;2.72;;
6832;SDS011;3454;42.654;23.378;2023-04-24T12:35:52;3.47;;;2.97;;
6832;SDS011;3454;42.654;23.378;2023-04-24T12:38:21;7.97;;;3.00;;
6832;SDS011;3454;42.654;23.378;2023-04-24T12:41:00;3.13;;;2.92;;
6832;SDS011;3454;42.654;23.378;2023-04-24T12:43:33;5.18;;;2.80;;
6832;SDS011;3454;42.654;23.378;2023-04-24T12:45:59;4.78;;;3.10;;
6832;SDS011;3454;42.654;23.378;2023-04-24T12:48:25;5.97;;;2.70;;
6832;SDS011;3454;42.654;23.378;2023-04-24T12:50:51;4.07;;;2.95;;
6832;SDS011;3454;42.654;23.378;2023-04-24T12:53:17;5.05;;;2.78;;
6832;SDS011;3454;42.654;23.378;2023-04-24T12:55:43;3.05;;;2.72;;
6832;SDS011;3454;42.654;23.378;2023-04-24T12:58:10;3.90;;;2.83;;
6832;SDS011;3454;42.654;23.378;2023-04-24T13:00:35;4.72;;;3.15;;
6832;SDS011;3454;42.654;23.378;2023-04-24T13:03:01;3.83;;;3.05;;
6832;SDS011;3454;42.654;23.378;2023-04-24T13:05:27;3.50;;;3.20;;
6832;SDS011;3454;42.654;23.378;2023-04-24T13:07:52;5.15;;;3.33;;
6832;SDS011;3454;42.654;23.378;2023-04-24T13:10:18;4.20;;;3.70;;
6832;SDS011;3454;42.654;23.378;2023-04-24T13:12:44;4.22;;;3.28;;
6832;SDS011;3454;42.654;23.378;2023-04-24T13:15:11;5.50;;;3.30;;
6832;SDS011;3454;42.654;23.378;2023-04-24T13:17:37;4.47;;;3.50;;
6832;SDS011;3454;42.654;23.378;2023-04-24T13:20:02;3.40;;;3.08;;
6832;SDS011;3454;42.654;23.378;2023-04-24T13:22:29;7.75;;;3.30;;
6832;SDS011;3454;42.654;23.378;2023-04-24T13:24:55;5.30;;;3.45;;
6832;SDS011;3454;42.654;23.378;2023-04-24T13:27:21;5.63;;;3.42;;
6832;SDS011;3454;42.654;23.378;2023-04-24T13:29:46;4.03;;;3.63;;
6832;SDS011;3454;42.654;23.378;2023-04-24T13:32:12;5.30;;;3.78;;
6832;SDS011;3454;42.654;23.378;2023-04-24T13:34:38;5.93;;;3.28;;
6832;SDS011;3454;42.654;23.378;2023-04-24T13:37:03;5.05;;;3.30;;
6832;SDS011;3454;42.654;23.378;2023-04-24T13:39:30;6.13;;;4.13;;
6832;SDS011;3454;42.654;23.378;2023-04-24T13:41:56;6.45;;;3.50;;
6832;SDS011;3454;42.654;23.378;2023-04-24T13:44:22;5.20;;;3.85;;
6832;SDS011;3454;42.654;23.378;2023-04-24T13:46:49;6.93;;;3.65;;
6832;SDS011;3454;42.654;23.378;2023-04-24T13:49:18;6.65;;;3.95;;
6832;SDS011;3454;42.654;23.378;2023-04-24T13:51:44;4.72;;;3.55;;
6832;SDS011;3454;42.654;23.378;2023-04-24T13:54:10;9.43;;;4.15;;
6832;SDS011;3454;42.654;23.378;2023-04-24T13:56:36;6.78;;;4.13;;
6832;SDS011;3454;42.654;23.378;2023-04-24T13:59:02;4.53;;;3.53;;
6832;SDS011;3454;42.654;23.378;2023-04-24T14:01:27;4.05;;;3.65;;
6832;SDS011;3454;42.654;23.378;2023-04-24T14:03:54;4.70;;;3.75;;
6832;SDS011;3454;42.654;23.378;2023-04-24T14:06:21;8.45;;;3.67;;
6832;SDS011;3454;42.654;23.378;2023-04-24T14:08:46;8.18;;;3.53;;
6832;SDS011;3454;42.654;23.378;2023-04-24T14:11:13;6.40;;;3.90;;
6832;SDS011;3454;42.654;23.378;2023-04-24T14:13:40;6.38;;;4.15;;
6832;SDS011;3454;42.654;23.378;2023-04-24T14:16:07;4.72;;;3.75;;
6832;SDS011;3454;42.654;23.378;2023-04-24T14:18:33;5.65;;;3.75;;
6832;SDS011;3454;42.654;23.378;2023-04-24T14:20:59;8.95;;;3.47;;
6832;SDS011;3454;42.654;23.378;2023-04-24T14:23:26;4.30;;;3.17;;
6832;SDS011;3454;42.654;23.378;2023-04-24T14:25:52;5.82;;;2.78;;
6832;SDS011;3454;42.654;23.378;2023-04-24T14:28:18;3.30;;;2.85;;
6832;SDS011;3454;42.654;23.378;2023-04-24T14:30:45;7.55;;;3.80;;
6832;SDS011;3454;42.654;23.378;2023-04-24T14:33:11;4.65;;;3.30;;
6832;SDS011;3454;42.654;23.378;2023-04-24T14:35:38;3.13;;;2.83;;
6832;SDS011;3454;42.654;23.378;2023-04-24T14:38:05;3.58;;;3.13;;
6832;SDS011;3454;42.654;23.378;2023-04-24T14:40:31;3.63;;;2.30;;
6832;SDS011;3454;42.654;23.378;2023-04-24T14:42:57;2.65;;;2.40;;
6832;SDS011;3454;42.654;23.378;2023-04-24T14:45:23;5.00;;;3.30;;
6832;SDS011;3454;42.654;23.378;2023-04-24T14:47:49;5.25;;;3.38;;
6832;SDS011;3454;42.654;23.378;2023-04-24T14:50:22;5.28;;;3.13;;
6832;SDS011;3454;42.654;23.378;2023-04-24T14:52:48;4.78;;;2.95;;
6832;SDS011;3454;42.654;23.378;2023-04-24T14:55:14;6.53;;;3.20;;
6832;SDS011;3454;42.654;23.378;2023-04-24T14:57:39;3.28;;;2.97;;
6832;SDS011;3454;42.654;23.378;2023-04-24T15:00:05;5.00;;;3.10;;
6832;SDS011;3454;42.654;23.378;2023-04-24T15:02:41;4.60;;;3.35;;
6832;SDS011;3454;42.654;23.378;2023-04-24T15:05:09;3.47;;;2.65;;
6832;SDS011;3454;42.654;23.378;2023-04-24T15:07:35;7.07;;;3.53;;